Terminal Aerodrome Forecast
Issued by NWS

Home | Current Version | Previous Version | Graphics & Text | Print | Product List | Glossary On
Versions: 1 2 3 4 5 6 7 8 9 10 11 12 13 14 15 16 17 18 19 20
000
FTUS43 KABR 241137
TAFATY
TAF
KATY 241137Z 2412/2512 VRB04KT P6SM SKC
      TEMPO 2412/2413 5SM BR
     FM241400 18007KT P6SM SCT040
     FM250100 15008KT P6SM BKN200
     FM250900 13007KT P6SM SHRA OVC070=

USA.gov is the U.S. government's official web portal to all federal, state and local government web resources and services.